createdAt,value
2019-04-21T00:00:27.549Z,998.47
2019-04-21T00:02:32.004Z,998.85
2019-04-21T00:04:40.772Z,998.69
2019-04-21T00:06:50.323Z,998.68
2019-04-21T00:08:48.416Z,999.02
2019-04-21T00:10:51.615Z,998.66
2019-04-21T00:12:40.549Z,998.74
2019-04-21T00:14:39.561Z,998.55
2019-04-21T00:16:34.763Z,998.51
2019-04-21T00:18:30.159Z,998.58
2019-04-21T00:20:32.256Z,998.32
2019-04-21T00:22:37.736Z,998.56
2019-04-21T00:24:41.323Z,998.83
2019-04-21T00:26:45.931Z,998.67
2019-04-21T00:28:51.947Z,998.31
2019-04-21T00:30:47.046Z,998.56
2019-04-21T00:32:39.169Z,998.17
2019-04-21T00:34:26.267Z,998.31
2019-04-21T00:36:33.390Z,998.49
2019-04-21T00:39:02.994Z,998.34
2019-04-21T00:40:52.125Z,998.43
2019-04-21T00:42:38.906Z,998.36
2019-04-21T00:44:33.005Z,998.35
2019-04-21T00:46:40.319Z,997.96
2019-04-21T00:48:47.668Z,998.07
2019-04-21T00:51:03.994Z,998.08
2019-04-21T00:52:58.166Z,998.13
2019-04-21T00:54:58.568Z,997.99
2019-04-21T00:56:49.680Z,998.29
2019-04-21T00:58:48.643Z,997.89
2019-04-21T01:00:49.600Z,997.83
2019-04-21T01:02:49.965Z,997.81
2019-04-21T01:04:44.795Z,998.08
2019-04-21T01:06:48.296Z,997.96
2019-04-21T01:08:46.755Z,998.18
2019-04-21T01:10:38.103Z,998.09
2019-04-21T01:12:53.580Z,997.79
2019-04-21T01:14:43.206Z,997.90
2019-04-21T01:16:54.128Z,998.39
2019-04-21T01:18:45.950Z,998.01
2019-04-21T01:20:26.240Z,998.35
2019-04-21T01:22:26.886Z,997.91
2019-04-21T01:24:32.483Z,997.81
2019-04-21T01:26:39.311Z,997.53
2019-04-21T01:28:39.930Z,998.08
2019-04-21T01:30:50.636Z,997.87
2019-04-21T01:32:51.294Z,997.97
2019-04-21T01:34:49.666Z,997.61
2019-04-21T01:36:45.474Z,997.62
2019-04-21T01:38:48.263Z,997.78
2019-04-21T01:40:44.978Z,997.74
2019-04-21T01:44:48.003Z,997.55
2019-04-21T01:46:39.500Z,997.66
2019-04-21T01:48:45.891Z,997.83
2019-04-21T01:50:42.367Z,997.55
2019-04-21T01:52:48.524Z,997.68
2019-04-21T01:54:49.857Z,997.46
2019-04-21T01:56:47.895Z,997.86
2019-04-21T01:58:40.216Z,997.58
2019-04-21T02:00:39.016Z,997.85
2019-04-21T02:02:49.241Z,997.59
2019-04-21T02:04:47.345Z,997.49
2019-04-21T02:06:45.546Z,997.62
2019-04-21T02:08:36.208Z,997.83
2019-04-21T02:14:45.642Z,997.41
2019-04-21T02:16:40.460Z,997.30
2019-04-21T02:18:43.769Z,997.59
2019-04-21T02:20:40.291Z,997.28
2019-04-21T02:23:06.716Z,997.52
2019-04-21T02:24:42.737Z,997.58
2019-04-21T02:26:45.668Z,997.42
2019-04-21T02:28:56.046Z,997.62
2019-04-21T02:33:03.994Z,997.73
2019-04-21T02:35:06.390Z,997.33
2019-04-21T02:37:17.615Z,997.76
2019-04-21T02:40:51.370Z,997.61
2019-04-21T02:43:07.328Z,997.63
2019-04-21T02:46:48.500Z,997.19
2019-04-21T02:49:04.140Z,996.87
2019-04-21T02:50:52.930Z,997.08
2019-04-21T02:52:58.131Z,997.13
2019-04-21T02:54:54.126Z,997.29
2019-04-21T02:57:04.663Z,997.23
2019-04-21T02:58:59.854Z,997.26
2019-04-21T03:00:55.477Z,996.85
2019-04-21T03:02:54.497Z,996.94
2019-04-21T03:07:07.037Z,997.18
2019-04-21T03:09:01.204Z,997.38
2019-04-21T03:10:59.293Z,997.12
2019-04-21T03:12:43.895Z,996.72
2019-04-21T03:16:47.224Z,996.95
2019-04-21T03:19:00.236Z,997.06
2019-04-21T03:22:59.963Z,996.90
2019-04-21T03:25:21.472Z,997.07
2019-04-21T03:31:25.237Z,996.83
2019-04-21T03:33:23.750Z,996.92
2019-04-21T03:35:33.961Z,996.88
2019-04-21T03:37:19.083Z,996.91
2019-04-21T03:41:00.954Z,996.83
2019-04-21T03:42:59.781Z,996.85
2019-04-21T03:44:59.124Z,996.91
2019-04-21T03:46:55.673Z,996.74
2019-04-21T03:49:04.954Z,996.70
2019-04-21T03:52:48.220Z,996.86
2019-04-21T03:55:25.173Z,996.71
2019-04-21T03:57:11.389Z,996.63
2019-04-21T03:58:58.463Z,996.80
2019-04-21T04:03:13.745Z,996.99
2019-04-21T04:07:06.192Z,996.67
2019-04-21T04:11:04.715Z,996.58
2019-04-21T04:12:57.210Z,996.86
2019-04-21T04:14:55.548Z,996.68
2019-04-21T04:17:04.749Z,996.57
2019-04-21T04:19:05.491Z,996.84
2019-04-21T04:22:48.194Z,996.66
2019-04-21T04:27:02.492Z,996.65
2019-04-21T04:29:08.870Z,996.96
2019-04-21T04:30:45.866Z,996.78
2019-04-21T04:37:05.946Z,996.46
2019-04-21T04:39:02.308Z,996.84
2019-04-21T04:40:55.977Z,996.48
2019-04-21T04:42:56.849Z,996.63
2019-04-21T04:45:08.329Z,996.57
2019-04-21T04:47:07.345Z,996.70
2019-04-21T04:49:06.060Z,996.56
2019-04-21T04:52:51.197Z,996.40
2019-04-21T04:54:55.173Z,996.59
2019-04-21T04:56:53.740Z,996.43
2019-04-21T05:01:08.612Z,996.74
2019-04-21T05:02:55.994Z,996.45
2019-04-21T05:05:07.047Z,996.42
2019-04-21T05:07:00.161Z,996.57
2019-04-21T05:11:08.134Z,996.74
2019-04-21T05:12:51.207Z,996.29
2019-04-21T05:14:46.632Z,996.83
2019-04-21T05:16:52.987Z,996.54
2019-04-21T05:19:07.993Z,996.63
2019-04-21T05:21:09.055Z,996.35
2019-04-21T05:22:48.953Z,996.77
2019-04-21T05:24:44.094Z,996.51
2019-04-21T05:26:43.370Z,996.86
2019-04-21T05:28:43.244Z,996.48
2019-04-21T05:30:48.999Z,996.60
2019-04-21T05:34:42.998Z,996.57
2019-04-21T05:36:44.520Z,996.62
2019-04-21T05:38:37.941Z,996.70
2019-04-21T05:42:39.630Z,996.70
2019-04-21T05:44:56.351Z,996.33
2019-04-21T05:48:46.931Z,996.81
2019-04-21T05:50:44.135Z,996.59
2019-04-21T05:54:44.038Z,996.54
2019-04-21T05:56:51.605Z,996.39
2019-04-21T05:58:43.665Z,996.76
2019-04-21T06:01:06.464Z,996.69
2019-04-21T06:02:53.451Z,996.65
2019-04-21T06:05:13.929Z,996.52
2019-04-21T06:08:49.925Z,996.60
2019-04-21T06:10:43.288Z,996.41
2019-04-21T06:12:52.184Z,996.38
2019-04-21T06:14:43.963Z,996.17
2019-04-21T06:16:43.912Z,996.36
2019-04-21T06:20:46.656Z,996.16
2019-04-21T06:22:53.211Z,996.22
2019-04-21T06:25:11.522Z,996.32
2019-04-21T06:28:46.561Z,996.48
2019-04-21T06:30:59.255Z,996.26
2019-04-21T06:32:50.603Z,996.12
2019-04-21T06:35:08.350Z,996.17
2019-04-21T06:36:42.285Z,996.33
2019-04-21T06:38:59.638Z,996.33
2019-04-21T06:40:48.379Z,996.24
2019-04-21T06:42:50.274Z,996.53
2019-04-21T06:44:51.225Z,996.23
2019-04-21T06:46:44.952Z,996.32
2019-04-21T06:48:58.357Z,996.36
2019-04-21T06:50:52.919Z,996.43
2019-04-21T06:53:00.752Z,996.22
2019-04-21T06:54:44.685Z,996.31
2019-04-21T06:56:40.945Z,996.37
2019-04-21T06:58:53.462Z,996.09
2019-04-21T07:00:42.421Z,996.27
2019-04-21T07:02:51.901Z,996.07
2019-04-21T07:04:50.243Z,996.19
2019-04-21T07:06:44.113Z,996.28
2019-04-21T07:08:53.232Z,996.54
2019-04-21T07:12:45.294Z,996.15
2019-04-21T07:14:50.025Z,996.19
2019-04-21T07:16:51.260Z,996.40
2019-04-21T07:18:55.577Z,996.27
2019-04-21T07:20:50.463Z,996.25
2019-04-21T07:22:50.820Z,995.99
2019-04-21T07:24:43.432Z,996.24
2019-04-21T07:26:51.551Z,996.06
2019-04-21T07:28:56.239Z,996.03
2019-04-21T07:30:51.832Z,996.21
2019-04-21T07:32:50.804Z,996.05
2019-04-21T07:38:45.662Z,995.98
2019-04-21T07:40:41.747Z,995.81
2019-04-21T07:42:38.032Z,996.12
2019-04-21T07:44:44.777Z,996.04
2019-04-21T07:46:41.724Z,996.28
2019-04-21T07:48:50.070Z,996.09
2019-04-21T07:50:47.465Z,995.87
2019-04-21T07:52:42.626Z,996.05
2019-04-21T07:54:56.819Z,995.76
2019-04-21T07:56:32.964Z,995.92
2019-04-21T08:00:49.329Z,996.04
2019-04-21T08:02:46.470Z,996.03
2019-04-21T08:05:02.870Z,995.97
2019-04-21T08:06:47.806Z,995.84
2019-04-21T08:10:47.466Z,995.99
2019-04-21T08:12:41.981Z,995.73
2019-04-21T08:14:43.578Z,995.91
2019-04-21T08:16:45.025Z,995.91
2019-04-21T08:18:48.684Z,995.89
2019-04-21T08:20:46.301Z,995.91
2019-04-21T08:24:51.882Z,995.94
2019-04-21T08:26:45.200Z,995.96
2019-04-21T08:28:49.551Z,995.60
2019-04-21T08:30:43.036Z,995.77
2019-04-21T08:32:51.492Z,995.97
2019-04-21T08:35:02.791Z,995.68
2019-04-21T08:36:47.745Z,996.01
2019-04-21T08:38:51.519Z,995.93
2019-04-21T08:40:45.732Z,995.81
2019-04-21T08:42:45.051Z,995.76
2019-04-21T08:44:47.854Z,995.58
2019-04-21T08:46:49.226Z,995.69
2019-04-21T08:48:52.618Z,995.54
2019-04-21T08:50:47.593Z,995.96
2019-04-21T08:52:50.887Z,995.39
2019-04-21T08:54:49.649Z,995.56
2019-04-21T08:56:49.568Z,995.65
2019-04-21T09:02:47.542Z,995.58
2019-04-21T09:04:50.731Z,995.36
2019-04-21T09:06:54.252Z,995.54
2019-04-21T09:08:46.167Z,995.77
2019-04-21T09:10:49.289Z,995.57
2019-04-21T09:12:46.438Z,995.51
2019-04-21T09:14:41.490Z,995.72
2019-04-21T09:16:44.042Z,995.58
2019-04-21T09:18:40.390Z,995.52
2019-04-21T09:20:50.866Z,995.65
2019-04-21T09:22:45.705Z,995.29
2019-04-21T09:26:41.222Z,995.35
2019-04-21T09:28:39.522Z,995.31
2019-04-21T09:30:30.069Z,995.22
2019-04-21T09:32:30.768Z,995.31
2019-04-21T09:34:33.229Z,995.39
2019-04-21T09:36:35.093Z,995.42
2019-04-21T09:38:32.855Z,995.21
2019-04-21T09:40:32.667Z,995.21
2019-04-21T09:42:34.808Z,995.32
2019-04-21T09:44:32.901Z,995.21
2019-04-21T09:46:27.614Z,995.10
2019-04-21T09:48:29.799Z,995.33
2019-04-21T09:50:27.235Z,995.12
2019-04-21T09:52:36.112Z,995.02
2019-04-21T09:54:31.269Z,995.27
2019-04-21T09:56:37.402Z,994.89
2019-04-21T09:58:32.946Z,994.89
2019-04-21T10:00:29.333Z,995.07
2019-04-21T10:02:34.339Z,995.12
2019-04-21T10:04:26.785Z,995.15
2019-04-21T10:06:28.234Z,995.01
2019-04-21T10:08:27.281Z,995.19
2019-04-21T10:10:27.510Z,995.02
2019-04-21T10:12:26.830Z,995.10
2019-04-21T10:14:27.074Z,995.15
2019-04-21T10:16:27.079Z,994.93
2019-04-21T10:18:27.326Z,995.15
2019-04-21T10:20:26.915Z,994.97
2019-04-21T10:22:26.906Z,994.74
2019-04-21T10:24:26.961Z,994.73
2019-04-21T10:26:26.833Z,994.76
2019-04-21T10:28:27.045Z,994.83
2019-04-21T10:30:26.910Z,994.52
2019-04-21T10:32:28.103Z,994.88
2019-04-21T10:34:27.381Z,994.58
2019-04-21T10:38:33.242Z,994.82
2019-04-21T10:40:28.329Z,994.55
2019-04-21T10:42:27.036Z,994.66
2019-04-21T10:44:27.318Z,994.83
2019-04-21T10:46:28.816Z,994.57
2019-04-21T10:48:28.398Z,994.46
2019-04-21T10:50:27.073Z,994.45
2019-04-21T10:52:28.930Z,994.30
2019-04-21T10:54:37.893Z,994.71
2019-04-21T10:56:29.777Z,994.53
2019-04-21T10:58:26.918Z,994.40
2019-04-21T11:00:28.075Z,994.49
2019-04-21T11:02:27.041Z,994.66
2019-04-21T11:04:31.367Z,994.18
2019-04-21T11:06:26.744Z,994.41
2019-04-21T11:08:32.258Z,994.21
2019-04-21T11:10:27.769Z,994.35
2019-04-21T11:12:27.820Z,994.29
2019-04-21T11:14:27.201Z,994.22
2019-04-21T11:16:27.065Z,994.01
2019-04-21T11:18:28.124Z,994.08
2019-04-21T11:20:27.045Z,994.23
2019-04-21T11:22:28.484Z,994.20
2019-04-21T11:24:27.118Z,993.95
2019-04-21T11:26:27.610Z,993.97
2019-04-21T11:28:27.208Z,993.80
2019-04-21T11:30:27.499Z,993.85
2019-04-21T11:32:27.358Z,993.64
2019-04-21T11:34:27.285Z,994.06
2019-04-21T11:36:27.186Z,993.84
2019-04-21T11:38:30.022Z,993.96
2019-04-21T11:40:27.690Z,993.85
2019-04-21T11:42:27.901Z,993.67
2019-04-21T11:44:27.050Z,993.79
2019-04-21T11:46:28.550Z,993.93
2019-04-21T11:48:27.934Z,993.72
2019-04-21T11:50:26.906Z,993.64
2019-04-21T11:52:27.183Z,993.75
2019-04-21T11:54:27.049Z,993.29
2019-04-21T11:56:27.360Z,993.74
2019-04-21T11:58:27.810Z,993.84
2019-04-21T12:00:27.360Z,993.49
2019-04-21T12:02:27.645Z,993.29
2019-04-21T12:04:27.507Z,993.61
2019-04-21T12:06:32.212Z,993.70
2019-04-21T12:08:32.399Z,993.45
2019-04-21T12:10:27.197Z,993.80
2019-04-21T12:12:27.499Z,993.48
2019-04-21T12:14:28.039Z,993.14
2019-04-21T12:16:28.671Z,993.13
2019-04-21T12:18:28.599Z,993.34
2019-04-21T12:20:28.474Z,993.02
2019-04-21T12:22:29.986Z,993.40
2019-04-21T12:24:29.651Z,993.37
2019-04-21T12:26:28.275Z,993.28
2019-04-21T12:28:28.040Z,993.05
2019-04-21T12:30:27.288Z,993.28
2019-04-21T12:32:28.280Z,993.41
2019-04-21T12:34:28.014Z,993.35
2019-04-21T12:36:27.573Z,993.18
2019-04-21T12:38:36.361Z,992.84
2019-04-21T12:40:28.418Z,992.68
2019-04-21T12:42:27.127Z,992.95
2019-04-21T12:44:27.497Z,992.60
2019-04-21T12:46:27.673Z,993.03
2019-04-21T12:48:28.182Z,992.78
2019-04-21T12:50:27.785Z,992.98
2019-04-21T12:52:27.481Z,993.10
2019-04-21T12:54:27.900Z,992.99
2019-04-21T12:56:27.576Z,992.92
2019-04-21T12:58:26.941Z,992.72
2019-04-21T13:00:27.164Z,992.39
2019-04-21T13:02:27.483Z,992.75
2019-04-21T13:04:28.035Z,992.52
2019-04-21T13:06:27.736Z,992.65
2019-04-21T13:08:27.153Z,992.86
2019-04-21T13:10:26.925Z,992.57
2019-04-21T13:12:27.213Z,992.16
2019-04-21T13:14:27.224Z,992.19
2019-04-21T13:16:27.646Z,992.42
2019-04-21T13:18:27.250Z,992.44
2019-04-21T13:20:27.443Z,992.04
2019-04-21T13:22:27.963Z,992.51
2019-04-21T13:24:27.100Z,992.59
2019-04-21T13:26:32.773Z,992.31
2019-04-21T13:28:28.263Z,992.05
2019-04-21T13:30:28.403Z,992.18
2019-04-21T13:32:27.225Z,992.13
2019-04-21T13:34:28.320Z,992.18
2019-04-21T13:36:27.637Z,992.35
2019-04-21T13:39:45.827Z,992.26
2019-04-21T13:41:27.189Z,992.14
2019-04-21T13:43:17.031Z,992.52
2019-04-21T13:45:16.288Z,992.01
2019-04-21T13:47:16.816Z,992.28
2019-04-21T13:49:17.216Z,992.15
2019-04-21T13:51:17.371Z,992.22
2019-04-21T13:53:16.679Z,991.79
2019-04-21T13:55:15.945Z,992.03
2019-04-21T13:57:16.674Z,991.90
2019-04-21T13:59:16.099Z,991.65
2019-04-21T14:01:16.055Z,991.68
2019-04-21T14:03:16.762Z,991.71
2019-04-21T14:05:15.995Z,991.42
2019-04-21T14:07:16.434Z,991.64
2019-04-21T14:09:16.127Z,991.60
2019-04-21T14:11:15.742Z,991.89
2019-04-21T14:13:16.441Z,991.53
2019-04-21T14:15:16.016Z,991.39
2019-04-21T14:17:17.012Z,991.32
2019-04-21T14:19:16.950Z,991.09
2019-04-21T14:21:16.046Z,991.29
2019-04-21T14:23:23.102Z,991.41
2019-04-21T14:25:17.364Z,991.32
2019-04-21T14:27:16.331Z,991.52
2019-04-21T14:29:17.468Z,991.22
2019-04-21T14:31:16.605Z,991.33
2019-04-21T14:33:16.237Z,991.33
2019-04-21T14:35:16.693Z,991.33
2019-04-21T14:37:17.042Z,991.20
2019-04-21T14:39:16.695Z,991.27
2019-04-21T14:41:15.950Z,991.27
2019-04-21T14:43:16.454Z,991.12
2019-04-21T14:45:16.819Z,991.03
2019-04-21T14:47:15.801Z,991.26
2019-04-21T14:49:17.240Z,991.04
2019-04-21T14:51:16.832Z,990.83
2019-04-21T14:53:16.100Z,991.43
2019-04-21T14:55:16.667Z,990.86
2019-04-21T14:57:15.808Z,991.20
2019-04-21T14:59:17.116Z,990.97
2019-04-21T15:01:15.901Z,990.75
2019-04-21T15:03:16.091Z,991.10
2019-04-21T15:05:15.921Z,990.73
2019-04-21T15:07:17.102Z,990.87
2019-04-21T15:09:16.074Z,991.08
2019-04-21T15:11:16.111Z,990.77
2019-04-21T15:13:17.106Z,990.55
2019-04-21T15:15:16.103Z,990.60
2019-04-21T15:17:18.808Z,990.80
2019-04-21T15:19:16.843Z,990.83
2019-04-21T15:21:17.360Z,990.94
2019-04-21T15:23:16.230Z,990.73
2019-04-21T15:25:16.451Z,991.15
2019-04-21T15:27:16.862Z,990.78
2019-04-21T15:29:17.081Z,990.98
2019-04-21T15:31:20.454Z,990.70
2019-04-21T15:33:16.363Z,990.69
2019-04-21T15:35:17.387Z,990.98
2019-04-21T15:37:17.783Z,990.69
2019-04-21T15:39:16.082Z,990.40
2019-04-21T15:41:16.430Z,990.48
2019-04-21T15:43:15.942Z,990.71
2019-04-21T15:45:16.748Z,990.74
2019-04-21T15:47:16.238Z,990.77
2019-04-21T15:49:17.458Z,990.89
2019-04-21T15:51:16.059Z,990.76
2019-04-21T15:53:16.073Z,990.48
2019-04-21T15:55:16.800Z,990.52
2019-04-21T15:57:15.894Z,990.56
2019-04-21T15:59:16.680Z,990.43
2019-04-21T16:01:16.459Z,990.28
2019-04-21T16:03:16.546Z,990.68
2019-04-21T16:05:16.932Z,990.38
2019-04-21T16:07:16.168Z,990.35
2019-04-21T16:09:20.976Z,990.46
2019-04-21T16:11:15.918Z,990.34
2019-04-21T16:13:16.200Z,990.06
2019-04-21T16:15:16.665Z,989.96
2019-04-21T16:17:17.075Z,990.40
2019-04-21T16:19:16.549Z,990.25
2019-04-21T16:21:16.146Z,990.37
2019-04-21T16:23:15.995Z,990.16
2019-04-21T16:25:17.048Z,989.97
2019-04-21T16:27:17.413Z,990.32
2019-04-21T16:29:17.236Z,990.10
2019-04-21T16:31:16.365Z,990.02
2019-04-21T16:33:16.140Z,989.95
2019-04-21T16:35:16.921Z,989.87
2019-04-21T16:37:17.320Z,990.15
2019-04-21T16:39:16.044Z,989.71
2019-04-21T16:41:16.184Z,989.85
2019-04-21T16:43:16.387Z,990.19
2019-04-21T16:45:16.903Z,990.12
2019-04-21T16:47:17.244Z,989.64
2019-04-21T16:49:16.222Z,989.81
2019-04-21T16:51:15.987Z,989.69
2019-04-21T16:53:16.524Z,989.74
2019-04-21T16:55:16.894Z,989.93
2019-04-21T16:57:17.563Z,989.63
2019-04-21T16:59:16.759Z,989.68
2019-04-21T17:01:17.943Z,990.22
2019-04-21T17:03:16.630Z,989.44
2019-04-21T17:05:16.267Z,989.77
2019-04-21T17:07:16.073Z,989.79
2019-04-21T17:09:16.738Z,989.73
2019-04-21T17:11:20.587Z,989.67
2019-04-21T17:13:16.074Z,989.46
2019-04-21T17:15:33.794Z,989.78
2019-04-21T17:17:37.259Z,989.48
2019-04-21T17:19:26.970Z,989.80
2019-04-21T17:21:16.757Z,989.75
2019-04-21T17:23:17.551Z,989.65
2019-04-21T17:25:18.146Z,989.71
2019-04-21T17:27:17.467Z,989.73
2019-04-21T17:29:16.825Z,989.55
2019-04-21T17:31:16.467Z,989.73
2019-04-21T17:33:22.688Z,989.98
2019-04-21T17:35:16.649Z,989.70
2019-04-21T17:37:17.239Z,989.71
2019-04-21T17:39:16.530Z,989.55
2019-04-21T17:41:25.665Z,989.75
2019-04-21T17:43:18.070Z,989.26
2019-04-21T17:45:17.171Z,989.49
2019-04-21T17:47:22.500Z,989.66
2019-04-21T17:49:17.019Z,989.41
2019-04-21T17:51:17.249Z,989.55
2019-04-21T17:53:26.550Z,989.22
2019-04-21T17:55:25.057Z,989.48
2019-04-21T17:57:36.711Z,989.85
2019-04-21T18:01:38.546Z,989.32
2019-04-21T18:03:46.190Z,989.74
2019-04-21T18:05:32.169Z,989.57
2019-04-21T18:07:34.925Z,989.70
2019-04-21T18:09:44.148Z,989.42
2019-04-21T18:11:37.171Z,989.56
2019-04-21T18:13:20.034Z,989.65
2019-04-21T18:15:29.013Z,989.74
2019-04-21T18:17:16.737Z,989.67
2019-04-21T18:19:19.401Z,989.96
2019-04-21T18:21:16.761Z,989.40
2019-04-21T18:23:33.623Z,989.56
2019-04-21T18:25:28.395Z,989.74
2019-04-21T18:27:17.521Z,989.62
2019-04-21T18:29:17.833Z,989.70
2019-04-21T18:31:16.731Z,989.91
2019-04-21T18:33:23.374Z,989.62
2019-04-21T18:35:17.766Z,989.80
2019-04-21T18:37:27.137Z,989.59
2019-04-21T18:39:34.032Z,989.69
2019-04-21T18:41:17.394Z,989.55
2019-04-21T18:43:48.586Z,989.73
2019-04-21T18:45:53.334Z,989.66
2019-04-21T18:47:31.527Z,989.55
2019-04-21T18:49:17.356Z,989.75
2019-04-21T18:51:20.326Z,989.75
2019-04-21T18:53:34.080Z,989.57
2019-04-21T18:55:25.022Z,989.75
2019-04-21T18:57:26.537Z,989.56
2019-04-21T18:59:20.013Z,990.09
2019-04-21T19:01:22.833Z,989.77
2019-04-21T19:03:25.356Z,989.61
2019-04-21T19:05:21.213Z,989.55
2019-04-21T19:07:25.225Z,989.55
2019-04-21T19:09:55.912Z,989.77
2019-04-21T19:11:32.905Z,989.81
2019-04-21T19:13:47.818Z,989.98
2019-04-21T19:15:34.243Z,989.03
2019-04-21T19:19:56.394Z,989.65
2019-04-21T19:21:28.305Z,990.01
2019-04-21T19:23:45.677Z,989.76
2019-04-21T19:27:32.187Z,989.77
2019-04-21T19:29:31.703Z,989.74
2019-04-21T19:31:39.971Z,989.88
2019-04-21T19:33:29.731Z,989.77
2019-04-21T19:35:17.354Z,989.70
2019-04-21T19:37:20.908Z,989.81
2019-04-21T19:41:32.408Z,989.68
2019-04-21T19:43:35.465Z,989.56
2019-04-21T19:45:32.190Z,989.75
2019-04-21T19:47:37.171Z,989.70
2019-04-21T19:49:40.069Z,989.74
2019-04-21T19:51:31.407Z,989.59
2019-04-21T19:53:29.632Z,990.10
2019-04-21T19:55:18.106Z,989.94
2019-04-21T19:57:16.726Z,989.80
2019-04-21T19:59:20.012Z,989.81
2019-04-21T20:01:17.350Z,989.85
2019-04-21T20:03:16.533Z,989.60
2019-04-21T20:05:29.758Z,989.78
2019-04-21T20:07:26.280Z,989.60
2019-04-21T20:09:32.174Z,990.02
2019-04-21T20:11:34.732Z,989.78
2019-04-21T20:13:48.739Z,989.69
2019-04-21T20:15:41.952Z,989.70
2019-04-21T20:17:35.160Z,989.70
2019-04-21T20:19:17.915Z,989.53
2019-04-21T20:21:16.771Z,989.42
2019-04-21T20:23:22.815Z,989.96
2019-04-21T20:25:19.980Z,989.72
2019-04-21T20:27:24.147Z,989.74
2019-04-21T20:29:37.745Z,990.23
2019-04-21T20:31:31.560Z,989.71
2019-04-21T20:33:48.838Z,989.62
2019-04-21T20:35:42.976Z,989.72
2019-04-21T20:37:31.740Z,989.74
2019-04-21T20:39:23.229Z,989.76
2019-04-21T20:41:26.917Z,989.61
2019-04-21T20:45:34.866Z,989.59
2019-04-21T20:47:25.716Z,989.60
2019-04-21T20:49:27.031Z,989.92
2019-04-21T20:51:32.542Z,989.75
2019-04-21T20:53:31.356Z,989.49
2019-04-21T20:55:26.517Z,989.63
2019-04-21T20:57:31.605Z,989.71
2019-04-21T20:59:28.648Z,989.74
2019-04-21T21:01:34.838Z,989.44
2019-04-21T21:03:37.717Z,989.42
2019-04-21T21:05:27.265Z,989.82
2019-04-21T21:07:44.091Z,989.37
2019-04-21T21:09:33.823Z,989.55
2019-04-21T21:11:29.501Z,989.33
2019-04-21T21:13:39.687Z,989.46
2019-04-21T21:15:30.317Z,989.44
2019-04-21T21:17:46.795Z,989.56
2019-04-21T21:19:34.717Z,989.57
2019-04-21T21:21:29.537Z,989.71
2019-04-21T21:23:37.121Z,989.22
2019-04-21T21:25:41.838Z,989.69
2019-04-21T21:27:33.759Z,989.60
2019-04-21T21:29:33.095Z,989.33
2019-04-21T21:31:38.662Z,989.64
2019-04-21T21:33:39.478Z,989.46
2019-04-21T21:35:32.469Z,989.38
2019-04-21T21:37:39.366Z,989.83
2019-04-21T21:39:40.729Z,989.48
2019-04-21T21:41:24.472Z,989.24
2019-04-21T21:43:19.865Z,989.46
2019-04-21T21:45:19.906Z,989.45
2019-04-21T21:47:31.886Z,989.18
2019-04-21T21:49:33.528Z,989.25
2019-04-21T21:51:29.057Z,989.67
2019-04-21T21:53:22.874Z,989.79
2019-04-21T21:55:16.221Z,989.27
2019-04-21T21:57:16.524Z,989.39
2019-04-21T21:59:21.875Z,989.21
2019-04-21T22:01:20.788Z,989.40
2019-04-21T22:03:23.323Z,989.13
2019-04-21T22:05:23.482Z,989.39
2019-04-21T22:07:19.468Z,989.15
2019-04-21T22:09:16.651Z,989.04
2019-04-21T22:11:16.021Z,989.37
2019-04-21T22:13:19.793Z,989.33
2019-04-21T22:15:22.217Z,989.52
2019-04-21T22:17:29.005Z,989.26
2019-04-21T22:19:29.978Z,989.44
2019-04-21T22:21:36.353Z,989.32
2019-04-21T22:23:32.355Z,989.46
2019-04-21T22:25:25.490Z,989.09
2019-04-21T22:27:17.028Z,989.08
2019-04-21T22:29:16.306Z,989.22
2019-04-21T22:31:21.161Z,989.21
2019-04-21T22:33:19.317Z,989.31
2019-04-21T22:35:28.582Z,989.43
2019-04-21T22:37:28.718Z,989.41
2019-04-21T22:39:35.014Z,989.33
2019-04-21T22:41:24.490Z,989.35
2019-04-21T22:43:21.673Z,989.41
2019-04-21T22:45:17.562Z,989.06
2019-04-21T22:47:20.629Z,989.32
2019-04-21T22:49:17.917Z,989.38
2019-04-21T22:51:26.042Z,989.07
2019-04-21T22:53:17.879Z,989.38
2019-04-21T22:55:20.875Z,989.21
2019-04-21T22:57:21.136Z,989.71
2019-04-21T22:59:20.567Z,989.45
2019-04-21T23:01:17.818Z,989.58
2019-04-21T23:03:22.455Z,989.18
2019-04-21T23:05:21.087Z,989.68
2019-04-21T23:07:19.392Z,989.21
2019-04-21T23:09:16.981Z,989.21
2019-04-21T23:11:17.966Z,989.29
2019-04-21T23:13:22.101Z,989.09
2019-04-21T23:15:20.520Z,989.13
2019-04-21T23:17:32.368Z,989.39
2019-04-21T23:19:34.797Z,989.19
2019-04-21T23:21:31.718Z,988.98
2019-04-21T23:23:37.086Z,989.35
2019-04-21T23:25:31.817Z,989.35
2019-04-21T23:27:34.339Z,989.50
2019-04-21T23:29:51.012Z,989.35
2019-04-21T23:31:34.413Z,989.44
2019-04-21T23:33:19.562Z,989.41
2019-04-21T23:35:21.784Z,989.42
2019-04-21T23:37:20.284Z,988.96
2019-04-21T23:39:24.315Z,989.09
2019-04-21T23:41:17.382Z,989.06
2019-04-21T23:43:20.667Z,989.13
2019-04-21T23:45:18.308Z,989.25
2019-04-21T23:47:29.304Z,989.37
2019-04-21T23:49:26.585Z,989.21
2019-04-21T23:51:32.421Z,989.18
2019-04-21T23:53:17.358Z,989.41
2019-04-21T23:55:17.055Z,989.44
2019-04-21T23:57:27.835Z,989.36
2019-04-21T23:59:18.014Z,989.38
